Time;durP1;ratioP1;P1;durP2;ratioP2;P2;SDS_P1;SDS_P2;PMS_P1;PMS_P2;Temp;Humidity;BMP_temperature;BMP_pressure;BME280_temperature;BME280_humidity;BME280_pressure;Samples;Min_cycle;Max_cycle;Signal;HPM_P1;HPM_P2
2022/06/29 00:02:05;;;;;;;;;;;;;;;;;;10498393;28;19924;-68
2022/06/29 00:07:07;;;;;;;;;;;;;;;;;;10498790;28;19925;-67
2022/06/29 00:12:09;;;;;;;;;;;;;;;;;;10498306;28;19947;-67
2022/06/29 00:17:11;;;;;;;;;;;;;;;;;;10498311;28;19924;-68
2022/06/29 00:22:14;;;;;;;;;;;;;;;;;;10498118;28;19924;-68
2022/06/29 00:27:16;;;;;;;;;;;;;;;;;;10465624;28;20375;-68
2022/06/29 00:32:18;;;;;;;;;;;;;;;;;;10456313;28;20276;-68
2022/06/29 00:37:20;;;;;;;;;;;;;;;;;;10456933;28;19924;-67
2022/06/29 00:42:22;;;;;;;;;;;;;;;;;;10457364;28;19935;-68
2022/06/29 00:47:24;;;;;;;;;;;;;;;;;;10456761;28;19925;-67
2022/06/29 00:52:26;;;;;;;;;;;;;;;;;;10456926;28;19925;-67
2022/06/29 00:57:29;;;;;;;;;;;;;;;;;;10489938;28;19931;-67
2022/06/29 01:02:34;;;;;;;;;;;;;;;;;;10498121;28;19924;-67
2022/06/29 01:07:36;;;;;;;;;;;;;;;;;;10467664;28;19955;-67
2022/06/29 01:12:38;;;;;;;;;;;;;;;;;;10477417;22;19924;-67
2022/06/29 01:17:40;;;;;;;;;;;;;;;;;;10542188;28;19932;-68
2022/06/29 01:22:42;;;;;;;;;;;;;;;;;;10545542;28;19931;-67
2022/06/29 01:27:44;;;;;;;;;;;;;;;;;;10508039;28;20378;-68
2022/06/29 01:32:47;;;;;;;;;;;;;;;;;;10504123;28;20378;-68
2022/06/29 01:37:49;;;;;;;;;;;;;;;;;;10544924;28;19924;-68
2022/06/29 01:42:51;;;;;;;;;;;;;;;;;;10545743;28;20378;-67
2022/06/29 01:47:53;;;;;;;;;;;;;;;;;;10503889;28;19939;-68
2022/06/29 01:52:55;;;;;;;;;;;;;;;;;;10505266;28;20252;-68
2022/06/29 01:57:57;;;;;;;;;;;;;;;;;;10545352;28;19931;-68
2022/06/29 02:02:59;;;;;;;;;;;;;;;;;;10542668;28;19943;-68
2022/06/29 02:08:01;;;;;;;;;;;;;;;;;;10502873;28;20291;-67
2022/06/29 02:13:03;;;;;;;;;;;;;;;;;;10508087;28;19924;-68
2022/06/29 02:18:05;;;;;;;;;;;;;;;;;;10543767;28;19931;-68
2022/06/29 02:23:07;;;;;;;;;;;;;;;;;;10538962;28;19928;-68
2022/06/29 02:28:09;;;;;;;;;;;;;;;;;;10502758;28;19936;-68
2022/06/29 02:38:32;;;;;;;;;;;;;;;;;;10544169;28;19924;-68
2022/06/29 02:43:34;;;;;;;;;;;;;;;;;;10531610;28;19951;-68
2022/06/29 02:48:36;;;;;;;;;;;;;;;;;;10501182;28;20371;-68
2022/06/29 02:53:38;;;;;;;;;;;;;;;;;;10512673;28;20367;-68
2022/06/29 02:58:40;;;;;;;;;;;;;;;;;;10543082;28;19931;-68
2022/06/29 03:03:42;;;;;;;;;;;;;;;;;;10530810;28;19925;-68
2022/06/29 03:08:44;;;;;;;;;;;;;;;;;;10501044;28;19928;-67
2022/06/29 03:13:47;;;;;;;;;;;;;;;;;;10512271;28;19931;-68
2022/06/29 03:18:49;;;;;;;;;;;;;;;;;;10541935;28;19924;-68
2022/06/29 03:23:51;;;;;;;;;;;;;;;;;;10528715;28;19925;-68
2022/06/29 03:28:53;;;;;;;;;;;;;;;;;;10499176;28;19928;-68
2022/06/29 03:33:55;;;;;;;;;;;;;;;;;;10512318;28;19931;-68
2022/06/29 03:38:57;;;;;;;;;;;;;;;;;;10541431;28;19931;-67
2022/06/29 03:43:59;;;;;;;;;;;;;;;;;;10529002;28;19932;-68
2022/06/29 03:49:01;;;;;;;;;;;;;;;;;;10499569;28;19924;-67
2022/06/29 03:54:04;;;;;;;;;;;;;;;;;;10511418;28;19924;-67
2022/06/29 03:59:06;;;;;;;;;;;;;;;;;;10540485;28;20299;-68
2022/06/29 04:04:08;;;;;;;;;;;;;;;;;;10527878;28;19924;-68
2022/06/29 04:09:10;;;;;;;;;;;;;;;;;;10498989;28;20295;-68
2022/06/29 04:14:12;;;;;;;;;;;;;;;;;;10511862;28;19931;-67
2022/06/29 04:19:14;;;;;;;;;;;;;;;;;;10540691;28;19935;-67
2022/06/29 04:24:16;;;;;;;;;;;;;;;;;;10526601;28;19931;-67
2022/06/29 04:29:18;;;;;;;;;;;;;;;;;;10498629;28;19932;-67
2022/06/29 04:34:20;;;;;;;;;;;;;;;;;;10525252;28;20295;-67
2022/06/29 04:39:22;;;;;;;;;;;;;;;;;;10497789;28;20282;-67
2022/06/29 04:44:25;;;;;;;;;;;;;;;;;;10515128;28;19929;-67
2022/06/29 04:49:28;;;;;;;;;;;;;;;;;;10506750;28;19924;-68
2022/06/29 04:54:30;;;;;;;;;;;;;;;;;;10520973;28;19924;-68
2022/06/29 04:59:32;;;;;;;;;;;;;;;;;;10547555;28;20289;-68
2022/06/29 05:04:34;;;;;;;;;;;;;;;;;;10531815;28;19936;-68
2022/06/29 05:09:36;;;;;;;;;;;;;;;;;;10505748;28;19925;-68
2022/06/29 05:14:38;;;;;;;;;;;;;;;;;;10520497;28;20302;-68
2022/06/29 05:19:40;;;;;;;;;;;;;;;;;;10546760;28;19924;-69
2022/06/29 05:24:42;;;;;;;;;;;;;;;;;;10530782;28;19925;-68
2022/06/29 05:29:44;;;;;;;;;;;;;;;;;;10504390;28;20298;-70
2022/06/29 05:34:46;;;;;;;;;;;;;;;;;;10505195;28;20291;-69
2022/06/29 05:39:48;;;;;;;;;;;;;;;;;;10486849;28;19924;-69
2022/06/29 05:44:51;;;;;;;;;;;;;;;;;;10514707;28;19932;-69
2022/06/29 05:49:55;;;;;;;;;;;;;;;;;;10504128;28;19930;-69
2022/06/29 05:54:58;;;;;;;;;;;;;;;;;;10505066;28;19929;-69
2022/06/29 06:00:03;;;;;;;;;;;;;;;;;;10503868;28;19924;-69
2022/06/29 06:05:05;;;;;;;;;;;;;;;;;;10504844;28;19928;-69
2022/06/29 06:10:07;;;;;;;;;;;;;;;;;;10503412;28;19986;-69
2022/06/29 06:15:09;;;;;;;;;;;;;;;;;;10518520;28;19931;-69
2022/06/29 06:20:11;;;;;;;;;;;;;;;;;;10543982;28;19924;-69
2022/06/29 06:25:13;;;;;;;;;;;;;;;;;;10526210;28;19924;-69
2022/06/29 06:30:15;;;;;;;;;;;;;;;;;;10502356;28;19943;-69
2022/06/29 06:35:19;;;;;;;;;;;;;;;;;;10503540;28;19925;-69
2022/06/29 06:45:42;;;;;;;;;;;;;;;;;;10502687;28;19924;-70
2022/06/29 06:50:44;;;;;;;;;;;;;;;;;;10512481;28;19967;-69
2022/06/29 06:55:49;;;;;;;;;;;;;;;;;;10530844;28;19959;-70
2022/06/29 07:00:51;;;;;;;;;;;;;;;;;;10541706;28;19931;-68
2022/06/29 07:05:53;;;;;;;;;;;;;;;;;;10502717;28;19924;-68
2022/06/29 07:10:55;;;;;;;;;;;;;;;;;;10514275;28;19928;-68
2022/06/29 07:15:57;;;;;;;;;;;;;;;;;;10500217;28;19930;-67
2022/06/29 07:21:00;;;;;;;;;;;;;;;;;;10502523;28;20003;-68
2022/06/29 07:26:02;;;;;;;;;;;;;;;;;;10540251;28;19924;-67
2022/06/29 07:31:04;;;;;;;;;;;;;;;;;;10542388;28;19924;-68
2022/06/29 07:36:06;;;;;;;;;;;;;;;;;;10539584;28;19924;-68
2022/06/29 07:41:09;;;;;;;;;;;;;;;;;;10523926;28;19931;-68
2022/06/29 07:46:11;;;;;;;;;;;;;;;;;;10539952;28;19931;-68
2022/06/29 07:51:13;;;;;;;;;;;;;;;;;;10524042;28;19978;-68
2022/06/29 07:56:15;;;;;;;;;;;;;;;;;;10506941;28;19933;-69
2022/06/29 08:01:17;;;;;;;;;;;;;;;;;;10499764;28;20394;-68
2022/06/29 08:06:19;;;;;;;;;;;;;;;;;;10530543;28;19924;-69
2022/06/29 08:11:21;;;;;;;;;;;;;;;;;;10509919;28;19931;-69
2022/06/29 08:16:23;;;;;;;;;;;;;;;;;;10500299;28;20398;-69
2022/06/29 08:21:26;;;;;;;;;;;;;;;;;;10505897;28;19928;-69
2022/06/29 08:26:28;;;;;;;;;;;;;;;;;;10529169;28;20363;-69
2022/06/29 08:31:50;;;;;;;;;;;;;;;;;;10498938;28;19975;-69
2022/06/29 08:36:52;;;;;;;;;;;;;;;;;;10498314;28;19931;-69
2022/06/29 08:41:54;;;;;;;;;;;;;;;;;;10497781;28;20402;-70
2022/06/29 08:46:58;;;;;;;;;;;;;;;;;;10498324;28;19929;-70
2022/06/29 08:52:00;;;;;;;;;;;;;;;;;;10498259;28;19931;-70
2022/06/29 08:57:02;;;;;;;;;;;;;;;;;;10497445;28;20359;-69
2022/06/29 09:02:04;;;;;;;;;;;;;;;;;;10498017;28;19957;-70
2022/06/29 09:07:07;;;;;;;;;;;;;;;;;;10498459;28;19968;-69
2022/06/29 09:12:09;;;;;;;;;;;;;;;;;;10497004;28;19924;-70
2022/06/29 09:17:11;;;;;;;;;;;;;;;;;;10497678;28;19925;-70
2022/06/29 09:22:13;;;;;;;;;;;;;;;;;;10497017;28;19990;-69
2022/06/29 09:27:15;;;;;;;;;;;;;;;;;;10498910;28;20375;-70
2022/06/29 09:32:17;;;;;;;;;;;;;;;;;;10504658;28;20390;-70
2022/06/29 09:37:19;;;;;;;;;;;;;;;;;;10504720;28;19932;-70
2022/06/29 09:42:21;;;;;;;;;;;;;;;;;;10503948;28;19925;-70
2022/06/29 09:47:24;;;;;;;;;;;;;;;;;;10486631;28;19929;-70
2022/06/29 09:52:26;;;;;;;;;;;;;;;;;;10504235;28;19938;-70
2022/06/29 09:57:28;;;;;;;;;;;;;;;;;;10503852;28;19931;-70
2022/06/29 10:02:43;;;;;;;;;;;;;;;;;;10486074;28;19925;-70
2022/06/29 10:07:46;;;;;;;;;;;;;;;;;;10503678;28;19936;-70
2022/06/29 10:18:08;;;;;;;;;;;;;;;;;;10503255;28;19924;-69
2022/06/29 10:23:16;;;;;;;;;;;;;;;;;;10503093;28;19929;-69
2022/06/29 10:28:21;;;;;;;;;;;;;;;;;;10502234;28;20396;-69
2022/06/29 10:33:23;;;;;;;;;;;;;;;;;;10502695;28;19925;-69
2022/06/29 10:38:25;;;;;;;;;;;;;;;;;;10501371;28;19939;-70
2022/06/29 10:43:27;;;;;;;;;;;;;;;;;;10501579;28;20293;-70
2022/06/29 10:48:31;;;;;;;;;;;;;;;;;;10502526;28;19932;-70
2022/06/29 10:53:33;;;;;;;;;;;;;;;;;;10501718;28;19946;-70
2022/06/29 10:58:35;;;;;;;;;;;;;;;;;;10501442;28;19928;-70
2022/06/29 11:03:37;;;;;;;;;;;;;;;;;;10501315;28;19925;-70
2022/06/29 11:14:00;;;;;;;;;;;;;;;;;;10504249;28;19924;-70
2022/06/29 11:19:02;;;;;;;;;;;;;;;;;;10524818;28;19932;-69
2022/06/29 11:24:04;;;;;;;;;;;;;;;;;;10515594;28;19924;-72
2022/06/29 11:29:07;;;;;;;;;;;;;;;;;;10499496;28;19924;-70
2022/06/29 11:34:09;;;;;;;;;;;;;;;;;;10496936;28;20375;-71
2022/06/29 11:39:11;;;;;;;;;;;;;;;;;;10511622;28;20284;-71
2022/06/29 11:44:13;;;;;;;;;;;;;;;;;;10499133;28;20394;-71
2022/06/29 11:49:36;;;;;;;;;;;;;;;;;;10498730;28;19928;-70
2022/06/29 11:54:38;;;;;;;;;;;;;;;;;;10511534;28;19968;-72
2022/06/29 11:59:40;;;;;;;;;;;;;;;;;;10498788;28;20020;-71
2022/06/29 12:04:42;;;;;;;;;;;;;;;;;;10499107;28;19932;-71
2022/06/29 12:09:45;;;;;;;;;;;;;;;;;;10500182;28;19970;-71
2022/06/29 12:14:47;;;;;;;;;;;;;;;;;;10498751;28;19924;-70
2022/06/29 12:19:49;;;;;;;;;;;;;;;;;;10540237;28;19924;-71
2022/06/29 12:24:51;;;;;;;;;;;;;;;;;;10541235;28;19924;-70
2022/06/29 12:29:53;;;;;;;;;;;;;;;;;;10540484;28;19924;-71
2022/06/29 12:34:55;;;;;;;;;;;;;;;;;;10540331;28;19928;-70
2022/06/29 12:39:57;;;;;;;;;;;;;;;;;;10501506;28;20272;-65
2022/06/29 12:45:01;;;;;;;;;;;;;;;;;;10509435;28;19931;-64
2022/06/29 12:50:03;;;;;;;;;;;;;;;;;;10493059;28;19924;-66
2022/06/29 12:55:05;;;;;;;;;;;;;;;;;;10499365;28;19928;-67
2022/06/29 13:00:07;;;;;;;;;;;;;;;;;;10498495;28;19931;-67
2022/06/29 13:05:10;;;;;;;;;;;;;;;;;;10504949;28;19948;-66
2022/06/29 13:10:12;;;;;;;;;;;;;;;;;;10506025;28;20007;-66
2022/06/29 13:15:14;;;;;;;;;;;;;;;;;;10505769;28;20376;-66
2022/06/29 13:20:16;;;;;;;;;;;;;;;;;;10507045;28;19950;-66
2022/06/29 13:25:18;;;;;;;;;;;;;;;;;;10505430;28;19925;-66
2022/06/29 13:30:20;;;;;;;;;;;;;;;;;;10484249;22;19924;-75
2022/06/29 13:35:22;;;;;;;;;;;;;;;;;;10463039;28;20276;-75
2022/06/29 13:40:24;;;;;;;;;;;;;;;;;;10463392;28;19925;-75
2022/06/29 13:45:26;;;;;;;;;;;;;;;;;;10463176;28;19931;-75
2022/06/29 13:50:29;;;;;;;;;;;;;;;;;;10462949;28;19931;-76
2022/06/29 13:55:31;;;;;;;;;;;;;;;;;;10462699;28;19924;-75
2022/06/29 14:00:33;;;;;;;;;;;;;;;;;;10462150;28;20390;-75
2022/06/29 14:05:36;;;;;;;;;;;;;;;;;;10462429;28;19925;-75
2022/06/29 14:10:38;;;;;;;;;;;;;;;;;;10462348;28;19928;-74
2022/06/29 14:15:43;;;;;;;;;;;;;;;;;;10462235;28;20008;-74
2022/06/29 14:20:45;;;;;;;;;;;;;;;;;;10461832;28;20008;-73
2022/06/29 14:25:50;;;;;;;;;;;;;;;;;;10461108;28;19929;-74
2022/06/29 14:30:52;;;;;;;;;;;;;;;;;;10460781;28;20257;-73
2022/06/29 14:35:54;;;;;;;;;;;;;;;;;;10461189;28;19924;-74
2022/06/29 14:40:56;;;;;;;;;;;;;;;;;;10461025;28;19931;-74
2022/06/29 14:45:58;;;;;;;;;;;;;;;;;;10461543;28;19928;-73
2022/06/29 14:51:00;;;;;;;;;;;;;;;;;;10460589;28;19931;-73
2022/06/29 14:56:02;;;;;;;;;;;;;;;;;;10460131;28;19924;-73
2022/06/29 15:01:04;;;;;;;;;;;;;;;;;;10460191;28;19940;-73
2022/06/29 15:06:06;;;;;;;;;;;;;;;;;;10459979;28;19925;-73
2022/06/29 15:11:08;;;;;;;;;;;;;;;;;;10459586;28;19925;-73
2022/06/29 15:16:15;;;;;;;;;;;;;;;;;;10459506;28;19924;-74
2022/06/29 15:21:18;;;;;;;;;;;;;;;;;;10458736;28;20437;-72
2022/06/29 15:26:26;;;;;;;;;;;;;;;;;;10458738;28;19990;-72
2022/06/29 15:31:28;;;;;;;;;;;;;;;;;;10458156;28;19931;-71
2022/06/29 15:41:51;;;;;;;;;;;;;;;;;;10458028;28;19925;-72
2022/06/29 15:46:53;;;;;;;;;;;;;;;;;;10458387;28;19999;-72
2022/06/29 15:51:55;;;;;;;;;;;;;;;;;;10458230;28;20407;-72
2022/06/29 15:56:57;;;;;;;;;;;;;;;;;;10439762;28;20304;-72
2022/06/29 16:01:59;;;;;;;;;;;;;;;;;;10457934;28;19925;-71
2022/06/29 16:07:02;;;;;;;;;;;;;;;;;;10457140;28;20291;-71
2022/06/29 16:12:07;;;;;;;;;;;;;;;;;;10439389;28;20368;-71
2022/06/29 16:17:09;;;;;;;;;;;;;;;;;;10457437;28;19971;-71
2022/06/29 16:22:11;;;;;;;;;;;;;;;;;;10457435;28;19932;-71
2022/06/29 16:27:13;;;;;;;;;;;;;;;;;;10437621;28;20283;-72
2022/06/29 16:32:15;;;;;;;;;;;;;;;;;;10456201;28;20379;-72
2022/06/29 16:37:18;;;;;;;;;;;;;;;;;;10458425;28;20398;-72
2022/06/29 16:42:20;;;;;;;;;;;;;;;;;;10497976;28;19931;-72
2022/06/29 16:47:22;;;;;;;;;;;;;;;;;;10489285;28;19932;-72
2022/06/29 16:52:24;;;;;;;;;;;;;;;;;;10506956;28;19924;-72
2022/06/29 16:57:26;;;;;;;;;;;;;;;;;;10501844;28;20347;-72
2022/06/29 17:02:28;;;;;;;;;;;;;;;;;;10483920;28;20359;-71
2022/06/29 17:07:31;;;;;;;;;;;;;;;;;;10499584;28;19925;-72
2022/06/29 17:12:33;;;;;;;;;;;;;;;;;;10470391;28;19929;-71
2022/06/29 17:17:35;;;;;;;;;;;;;;;;;;10459753;28;20379;-72
2022/06/29 17:22:37;;;;;;;;;;;;;;;;;;10458091;28;19928;-72
2022/06/29 17:27:39;;;;;;;;;;;;;;;;;;10494892;28;20314;-71
2022/06/29 17:32:41;;;;;;;;;;;;;;;;;;10497338;28;19928;-72
2022/06/29 17:37:43;;;;;;;;;;;;;;;;;;10498469;28;19928;-71
2022/06/29 17:42:46;;;;;;;;;;;;;;;;;;10497533;28;19936;-71
2022/06/29 17:47:48;;;;;;;;;;;;;;;;;;10497870;28;19932;-71
2022/06/29 17:52:50;;;;;;;;;;;;;;;;;;10496883;28;20375;-71
2022/06/29 17:57:52;;;;;;;;;;;;;;;;;;10492652;28;19929;-71
2022/06/29 18:02:54;;;;;;;;;;;;;;;;;;10457421;28;19931;-71
2022/06/29 18:07:56;;;;;;;;;;;;;;;;;;10457369;28;19936;-72
2022/06/29 18:12:58;;;;;;;;;;;;;;;;;;10457019;28;19933;-71
2022/06/29 18:18:00;;;;;;;;;;;;;;;;;;10457645;28;20299;-71
2022/06/29 18:23:02;;;;;;;;;;;;;;;;;;10498480;28;20025;-71
2022/06/29 18:28:04;;;;;;;;;;;;;;;;;;10498500;28;19929;-70
2022/06/29 18:33:06;;;;;;;;;;;;;;;;;;10498841;28;19936;-70
2022/06/29 18:38:11;;;;;;;;;;;;;;;;;;10498366;28;19928;-71
2022/06/29 18:43:13;;;;;;;;;;;;;;;;;;10500023;28;20386;-70
2022/06/29 18:48:16;;;;;;;;;;;;;;;;;;10501469;28;19924;-70
2022/06/29 18:53:18;;;;;;;;;;;;;;;;;;10501283;28;20283;-71
2022/06/29 18:58:20;;;;;;;;;;;;;;;;;;10501078;28;19924;-70
2022/06/29 19:03:22;;;;;;;;;;;;;;;;;;10500216;28;19924;-64
2022/06/29 19:08:31;;;;;;;;;;;;;;;;;;10500671;28;19935;-66
2022/06/29 19:13:33;;;;;;;;;;;;;;;;;;10483194;28;19926;-66
2022/06/29 19:18:35;;;;;;;;;;;;;;;;;;10498988;28;20370;-66
2022/06/29 19:23:37;;;;;;;;;;;;;;;;;;10500517;28;19931;-66
2022/06/29 19:28:39;;;;;;;;;;;;;;;;;;10498493;28;19924;-66
2022/06/29 19:33:44;;;;;;;;;;;;;;;;;;10499677;28;20299;-66
2022/06/29 19:38:46;;;;;;;;;;;;;;;;;;10500011;28;19938;-66
2022/06/29 19:43:50;;;;;;;;;;;;;;;;;;10499868;28;19932;-65
2022/06/29 19:48:52;;;;;;;;;;;;;;;;;;10499148;28;19973;-66
2022/06/29 19:53:56;;;;;;;;;;;;;;;;;;10496597;28;20418;-66
2022/06/29 19:58:58;;;;;;;;;;;;;;;;;;10498442;28;20283;-65
2022/06/29 20:04:00;;;;;;;;;;;;;;;;;;10472948;28;19936;-66
2022/06/29 20:09:02;;;;;;;;;;;;;;;;;;10453175;28;19931;-65
2022/06/29 20:14:04;;;;;;;;;;;;;;;;;;10458669;28;19925;-65
2022/06/29 20:19:07;;;;;;;;;;;;;;;;;;10457474;28;19924;-65
2022/06/29 20:24:09;;;;;;;;;;;;;;;;;;10458490;28;20019;-65
2022/06/29 20:29:12;;;;;;;;;;;;;;;;;;10456620;28;20368;-65
2022/06/29 20:34:14;;;;;;;;;;;;;;;;;;10457237;28;19936;-65
2022/06/29 20:39:17;;;;;;;;;;;;;;;;;;10457499;28;20300;-65
2022/06/29 20:49:41;;;;;;;;;;;;;;;;;;10457689;28;20000;-65
2022/06/29 20:54:43;;;;;;;;;;;;;;;;;;10497673;28;19925;-65
2022/06/29 20:59:45;;;;;;;;;;;;;;;;;;10497557;28;20398;-65
2022/06/29 21:04:47;;;;;;;;;;;;;;;;;;10497501;28;20356;-65
2022/06/29 21:09:49;;;;;;;;;;;;;;;;;;10490437;28;19928;-65
2022/06/29 21:14:52;;;;;;;;;;;;;;;;;;10497901;28;19924;-65
2022/06/29 21:19:54;;;;;;;;;;;;;;;;;;10497719;28;19932;-65
2022/06/29 21:24:59;;;;;;;;;;;;;;;;;;10501568;28;20397;-65
2022/06/29 21:30:01;;;;;;;;;;;;;;;;;;10504400;28;19924;-65
2022/06/29 21:35:03;;;;;;;;;;;;;;;;;;10479418;28;19925;-65
2022/06/29 21:40:05;;;;;;;;;;;;;;;;;;10463443;28;19925;-65
2022/06/29 21:45:07;;;;;;;;;;;;;;;;;;10463043;28;19925;-65
2022/06/29 21:55:30;;;;;;;;;;;;;;;;;;10462812;28;19925;-65
2022/06/29 22:00:32;;;;;;;;;;;;;;;;;;10465311;28;20375;-65
2022/06/29 22:05:34;;;;;;;;;;;;;;;;;;10503260;28;20283;-65
2022/06/29 22:10:36;;;;;;;;;;;;;;;;;;10503444;28;19924;-65
2022/06/29 22:15:38;;;;;;;;;;;;;;;;;;10503458;28;19924;-65
2022/06/29 22:20:40;;;;;;;;;;;;;;;;;;10502733;28;20264;-65
2022/06/29 22:25:42;;;;;;;;;;;;;;;;;;10502836;28;19925;-65
2022/06/29 22:30:45;;;;;;;;;;;;;;;;;;10463583;28;19925;-65
2022/06/29 22:35:47;;;;;;;;;;;;;;;;;;10461132;28;19925;-65
2022/06/29 22:40:49;;;;;;;;;;;;;;;;;;10460521;28;20304;-65
2022/06/29 22:45:51;;;;;;;;;;;;;;;;;;10442622;28;20313;-65
2022/06/29 22:50:53;;;;;;;;;;;;;;;;;;10460799;28;19925;-65
2022/06/29 22:55:55;;;;;;;;;;;;;;;;;;10475811;28;19925;-65
2022/06/29 23:00:59;;;;;;;;;;;;;;;;;;10501498;28;19929;-65
2022/06/29 23:06:01;;;;;;;;;;;;;;;;;;10501598;28;19991;-65
2022/06/29 23:16:23;;;;;;;;;;;;;;;;;;10499984;28;19931;-65
2022/06/29 23:21:26;;;;;;;;;;;;;;;;;;10500034;28;19925;-65
2022/06/29 23:26:28;;;;;;;;;;;;;;;;;;10463393;28;20019;-65
2022/06/29 23:31:30;;;;;;;;;;;;;;;;;;10458274;28;20308;-65
2022/06/29 23:36:32;;;;;;;;;;;;;;;;;;10458774;28;19925;-65
2022/06/29 23:41:34;;;;;;;;;;;;;;;;;;10458801;28;19932;-65
2022/06/29 23:46:37;;;;;;;;;;;;;;;;;;10457525;28;19948;-65
2022/06/29 23:51:39;;;;;;;;;;;;;;;;;;10471047;28;19928;-65
2022/06/29 23:56:41;;;;;;;;;;;;;;;;;;10498797;28;20371;-65
